Aviation Digital Data Service (ADDS)

Output produced by METARs form (0045 UTC 17 July 2019)
found at http://www.aviationweather.gov/metar/data/
 
METAR text: FNHU 161500Z 15005KT CAVOK 26/01 Q1022
Conditions at: FNHU (HUAMBO/NOVA LISB, AO) observed 1500 UTC 16 July 2019
Temperature: 26.0°C (79°F)
Dewpoint: 1.0°C (34°F) [RH = 20%]
Pressure (altimeter): 30.18 inches Hg (1022.0 mb)
Winds: from the SSE (150 degrees) at 6 MPH (5 knots; 2.6 m/s)
Visibility: 6 or more miles (10+ km)
Ceiling: ceiling and visibility are OK
Clouds: unknown
Weather: no significant weather observed at this time

METAR text: FNHU 161400Z 09005KT CAVOK 26/03 Q1022
Conditions at: FNHU (HUAMBO/NOVA LISB, AO) observed 1400 UTC 16 July 2019
Temperature: 26.0°C (79°F)
Dewpoint: 3.0°C (37°F) [RH = 23%]
Pressure (altimeter): 30.18 inches Hg (1022.0 mb)
Winds: from the E (90 degrees) at 6 MPH (5 knots; 2.6 m/s)
Visibility: 6 or more miles (10+ km)
Ceiling: ceiling and visibility are OK
Clouds: unknown
Weather: no significant weather observed at this time

METAR text: FNHU 161300Z VRB03KT CAVOK 26/04 Q1022
Conditions at: FNHU (HUAMBO/NOVA LISB, AO) observed 1300 UTC 16 July 2019
Temperature: 26.0°C (79°F)
Dewpoint: 4.0°C (39°F) [RH = 24%]
Pressure (altimeter): 30.18 inches Hg (1022.0 mb)
Winds: variable direction winds at 3 MPH (3 knots; 1.5 m/s)
Visibility: 6 or more miles (10+ km)
Ceiling: ceiling and visibility are OK
Clouds: unknown
Weather: no significant weather observed at this time

METAR text: FNHU 161200Z 00000KT CAVOK 26/01 Q1023
Conditions at: FNHU (HUAMBO/NOVA LISB, AO) observed 1200 UTC 16 July 2019
Temperature: 26.0°C (79°F)
Dewpoint: 1.0°C (34°F) [RH = 20%]
Pressure (altimeter): 30.21 inches Hg (1023.0 mb)
Winds: calm
Visibility: 6 or more miles (10+ km)
Ceiling: ceiling and visibility are OK
Clouds: unknown
Weather: no significant weather observed at this time

METAR text: FNHU 161100Z 08006KT CAVOK 24/02 Q1024
Conditions at: FNHU (HUAMBO/NOVA LISB, AO) observed 1100 UTC 16 July 2019
Temperature: 24.0°C (75°F)
Dewpoint: 2.0°C (36°F) [RH = 24%]
Pressure (altimeter): 30.24 inches Hg (1024.0 mb)
Winds: from the E (80 degrees) at 7 MPH (6 knots; 3.1 m/s)
Visibility: 6 or more miles (10+ km)
Ceiling: ceiling and visibility are OK
Clouds: unknown
Weather: no significant weather observed at this time

METAR text: FNHU 161000Z VRB03KT CAVOK 23/03 Q1025
Conditions at: FNHU (HUAMBO/NOVA LISB, AO) observed 1000 UTC 16 July 2019
Temperature: 23.0°C (73°F)
Dewpoint: 3.0°C (37°F) [RH = 27%]
Pressure (altimeter): 30.27 inches Hg (1025.0 mb)
Winds: variable direction winds at 3 MPH (3 knots; 1.5 m/s)
Visibility: 6 or more miles (10+ km)
Ceiling: ceiling and visibility are OK
Clouds: unknown
Weather: no significant weather observed at this time

METAR text: FNHU 160900Z 08013KT CAVOK 21/03 Q1026
Conditions at: FNHU (HUAMBO/NOVA LISB, AO) observed 0900 UTC 16 July 2019
Temperature: 21.0°C (70°F)
Dewpoint: 3.0°C (37°F) [RH = 30%]
Pressure (altimeter): 30.30 inches Hg (1026.0 mb)
Winds: from the E (80 degrees) at 15 MPH (13 knots; 6.7 m/s)
Visibility: 6 or more miles (10+ km)
Ceiling: ceiling and visibility are OK
Clouds: unknown
Weather: no significant weather observed at this time

METAR text: FNHU 160800Z 06005KT CAVOK 18/03 Q1026
Conditions at: FNHU (HUAMBO/NOVA LISB, AO) observed 0800 UTC 16 July 2019
Temperature: 18.0°C (64°F)
Dewpoint: 3.0°C (37°F) [RH = 37%]
Pressure (altimeter): 30.30 inches Hg (1026.0 mb)
Winds: from the ENE (60 degrees) at 6 MPH (5 knots; 2.6 m/s)
Visibility: 6 or more miles (10+ km)
Ceiling: ceiling and visibility are OK
Clouds: unknown
Weather: no significant weather observed at this time

METAR text: FNHU 160700Z 05004KT CAVOK 15/02 Q1025
Conditions at: FNHU (HUAMBO/NOVA LISB, AO) observed 0700 UTC 16 July 2019
Temperature: 15.0°C (59°F)
Dewpoint: 2.0°C (36°F) [RH = 41%]
Pressure (altimeter): 30.27 inches Hg (1025.0 mb)
Winds: from the NE (50 degrees) at 5 MPH (4 knots; 2.1 m/s)
Visibility: 6 or more miles (10+ km)
Ceiling: ceiling and visibility are OK
Clouds: unknown
Weather: no significant weather observed at this time

METAR text: FNHU 160600Z 00000KT CAVOK 10/03 Q1024
Conditions at: FNHU (HUAMBO/NOVA LISB, AO) observed 0600 UTC 16 July 2019
Temperature: 10.0°C (50°F)
Dewpoint: 3.0°C (37°F) [RH = 62%]
Pressure (altimeter): 30.24 inches Hg (1024.0 mb)
Winds: calm
Visibility: 6 or more miles (10+ km)
Ceiling: ceiling and visibility are OK
Clouds: unknown
Weather: no significant weather observed at this time

METAR text: FNHU 160500Z 00000KT CAVOK 10/01 Q1024
Conditions at: FNHU (HUAMBO/NOVA LISB, AO) observed 0500 UTC 16 July 2019
Temperature: 10.0°C (50°F)
Dewpoint: 1.0°C (34°F) [RH = 53%]
Pressure (altimeter): 30.24 inches Hg (1024.0 mb)
Winds: calm
Visibility: 6 or more miles (10+ km)
Ceiling: ceiling and visibility are OK
Clouds: unknown
Weather: no significant weather observed at this time

METAR text: FNHU 151600Z 06005KT CAVOK 25/02 Q1021
Conditions at: FNHU (HUAMBO/NOVA LISB, AO) observed 1600 UTC 15 July 2019
Temperature: 25.0°C (77°F)
Dewpoint: 2.0°C (36°F) [RH = 22%]
Pressure (altimeter): 30.15 inches Hg (1021.0 mb)
Winds: from the ENE (60 degrees) at 6 MPH (5 knots; 2.6 m/s)
Visibility: 6 or more miles (10+ km)
Ceiling: ceiling and visibility are OK
Clouds: unknown
Weather: no significant weather observed at this time

METAR text: FNHU 151500Z VRB03KT CAVOK 26/02 Q1021
Conditions at: FNHU (HUAMBO/NOVA LISB, AO) observed 1500 UTC 15 July 2019
Temperature: 26.0°C (79°F)
Dewpoint: 2.0°C (36°F) [RH = 21%]
Pressure (altimeter): 30.15 inches Hg (1021.0 mb)
Winds: variable direction winds at 3 MPH (3 knots; 1.5 m/s)
Visibility: 6 or more miles (10+ km)
Ceiling: ceiling and visibility are OK
Clouds: unknown
Weather: no significant weather observed at this time

METAR text: FNHU 151400Z 11005KT CAVOK 26/03 Q1021
Conditions at: FNHU (HUAMBO/NOVA LISB, AO) observed 1400 UTC 15 July 2019
Temperature: 26.0°C (79°F)
Dewpoint: 3.0°C (37°F) [RH = 23%]
Pressure (altimeter): 30.15 inches Hg (1021.0 mb)
Winds: from the ESE (110 degrees) at 6 MPH (5 knots; 2.6 m/s)
Visibility: 6 or more miles (10+ km)
Ceiling: ceiling and visibility are OK
Clouds: unknown
Weather: no significant weather observed at this time

METAR text: FNHU 151300Z 15006KT CAVOK 25/02 Q1022
Conditions at: FNHU (HUAMBO/NOVA LISB, AO) observed 1300 UTC 15 July 2019
Temperature: 25.0°C (77°F)
Dewpoint: 2.0°C (36°F) [RH = 22%]
Pressure (altimeter): 30.18 inches Hg (1022.0 mb)
Winds: from the SSE (150 degrees) at 7 MPH (6 knots; 3.1 m/s)
Visibility: 6 or more miles (10+ km)
Ceiling: ceiling and visibility are OK
Clouds: unknown
Weather: no significant weather observed at this time

Forecast for: FNHU (HUAMBO/NOVA LISB, AO)
Text: TAF FNHU 162300Z 1700/1712 09010KT CAVOK
Forecast period: 0000 to 1200 UTC 17 July 2019
Forecast type: FROM: standard forecast or significant change
Winds: from the E (90 degrees) at 12 MPH (10 knots; 5.1 m/s)
Visibility: 6 or more miles 10+ km)
Ceiling: unknown
Clouds: missing
Weather: NSW  (no significant weather)